sensor_id;sensor_type;location;lat;lon;timestamp;pressure;altitude;pressure_sealevel;temperature;humidity
41703;BME280;861;48.808;9.006;2023-01-29T00:02:12;98157.56;;;2.60;67.57
41703;BME280;861;48.808;9.006;2023-01-29T00:04:38;98154.53;;;2.84;67.07
41703;BME280;861;48.808;9.006;2023-01-29T00:07:04;98151.31;;;2.95;66.11
41703;BME280;861;48.808;9.006;2023-01-29T00:09:30;98160.56;;;3.11;64.68
41703;BME280;861;48.808;9.006;2023-01-29T00:11:57;98151.00;;;3.28;63.35
41703;BME280;861;48.808;9.006;2023-01-29T00:14:23;98155.28;;;2.76;65.91
41703;BME280;861;48.808;9.006;2023-01-29T00:16:49;98152.63;;;2.54;66.99
41703;BME280;861;48.808;9.006;2023-01-29T00:19:15;98154.09;;;2.60;66.38
41703;BME280;861;48.808;9.006;2023-01-29T00:21:42;98146.78;;;2.52;66.95
41703;BME280;861;48.808;9.006;2023-01-29T00:24:08;98147.72;;;2.78;64.94
41703;BME280;861;48.808;9.006;2023-01-29T00:26:34;98149.88;;;2.98;65.32
41703;BME280;861;48.808;9.006;2023-01-29T00:29:00;98149.78;;;2.81;66.43
41703;BME280;861;48.808;9.006;2023-01-29T00:31:28;98138.69;;;3.04;70.32
41703;BME280;861;48.808;9.006;2023-01-29T00:33:54;98143.00;;;3.14;69.00
41703;BME280;861;48.808;9.006;2023-01-29T00:36:22;98156.50;;;3.23;67.17
41703;BME280;861;48.808;9.006;2023-01-29T00:38:56;98140.53;;;3.26;66.53
41703;BME280;861;48.808;9.006;2023-01-29T00:41:31;98139.38;;;3.18;66.51
41703;BME280;861;48.808;9.006;2023-01-29T00:44:17;98145.94;;;3.35;65.34
41703;BME280;861;48.808;9.006;2023-01-29T00:47:05;98145.97;;;3.43;63.66
41703;BME280;861;48.808;9.006;2023-01-29T00:49:50;98144.06;;;3.04;64.64
41703;BME280;861;48.808;9.006;2023-01-29T00:52:16;98151.13;;;2.92;65.14
41703;BME280;861;48.808;9.006;2023-01-29T00:54:49;98142.34;;;3.08;64.41
41703;BME280;861;48.808;9.006;2023-01-29T00:57:16;98156.19;;;2.93;64.98
41703;BME280;861;48.808;9.006;2023-01-29T00:59:42;98140.66;;;2.90;65.00
41703;BME280;861;48.808;9.006;2023-01-29T01:02:08;98139.53;;;2.83;65.70
41703;BME280;861;48.808;9.006;2023-01-29T01:04:53;98144.16;;;2.91;66.16
41703;BME280;861;48.808;9.006;2023-01-29T01:07:19;98151.94;;;3.01;65.77
41703;BME280;861;48.808;9.006;2023-01-29T01:09:46;98156.94;;;2.85;65.56
41703;BME280;861;48.808;9.006;2023-01-29T01:12:31;98145.78;;;2.70;66.96
41703;BME280;861;48.808;9.006;2023-01-29T01:14:57;98142.41;;;2.86;66.24
41703;BME280;861;48.808;9.006;2023-01-29T01:17:23;98149.22;;;2.92;65.00
41703;BME280;861;48.808;9.006;2023-01-29T01:19:50;98146.88;;;2.99;65.08
41703;BME280;861;48.808;9.006;2023-01-29T01:22:16;98144.38;;;3.03;64.71
41703;BME280;861;48.808;9.006;2023-01-29T01:24:43;98143.03;;;2.83;65.50
41703;BME280;861;48.808;9.006;2023-01-29T01:27:09;98141.22;;;2.48;67.05
41703;BME280;861;48.808;9.006;2023-01-29T01:29:35;98126.41;;;2.90;65.07
41703;BME280;861;48.808;9.006;2023-01-29T01:32:01;98142.09;;;2.88;64.95
41703;BME280;861;48.808;9.006;2023-01-29T01:34:28;98144.38;;;2.72;65.36
41703;BME280;861;48.808;9.006;2023-01-29T01:36:55;98146.34;;;2.89;64.15
41703;BME280;861;48.808;9.006;2023-01-29T01:39:23;98152.59;;;2.76;65.63
41703;BME280;861;48.808;9.006;2023-01-29T01:41:52;98143.66;;;2.58;65.72
41703;BME280;861;48.808;9.006;2023-01-29T01:44:57;98144.53;;;2.76;65.79
41703;BME280;861;48.808;9.006;2023-01-29T01:47:45;98137.16;;;2.59;66.31
41703;BME280;861;48.808;9.006;2023-01-29T01:50:44;98139.00;;;2.72;66.86
41703;BME280;861;48.808;9.006;2023-01-29T01:53:33;98134.09;;;2.74;65.71
41703;BME280;861;48.808;9.006;2023-01-29T01:56:30;98136.41;;;2.89;66.07
41703;BME280;861;48.808;9.006;2023-01-29T01:59:17;98132.25;;;2.83;65.49
41703;BME280;861;48.808;9.006;2023-01-29T02:01:50;98136.22;;;2.86;65.52
41703;BME280;861;48.808;9.006;2023-01-29T02:04:25;98125.94;;;2.88;65.20
41703;BME280;861;48.808;9.006;2023-01-29T02:07:14;98133.28;;;2.96;64.02
41703;BME280;861;48.808;9.006;2023-01-29T02:10:09;98136.75;;;2.66;65.11
41703;BME280;861;48.808;9.006;2023-01-29T02:12:43;98139.94;;;2.46;65.94
41703;BME280;861;48.808;9.006;2023-01-29T02:15:13;98145.16;;;2.51;66.27
41703;BME280;861;48.808;9.006;2023-01-29T02:17:39;98146.03;;;2.38;67.31
41703;BME280;861;48.808;9.006;2023-01-29T02:23:46;98149.38;;;2.65;66.32
41703;BME280;861;48.808;9.006;2023-01-29T02:30:08;98142.06;;;2.57;65.67
41703;BME280;861;48.808;9.006;2023-01-29T02:33:07;98150.53;;;2.51;66.93
41703;BME280;861;48.808;9.006;2023-01-29T02:35:59;98149.81;;;2.59;66.24
41703;BME280;861;48.808;9.006;2023-01-29T02:42:26;98147.53;;;2.52;66.11
41703;BME280;861;48.808;9.006;2023-01-29T02:45:34;98138.59;;;2.57;66.06
41703;BME280;861;48.808;9.006;2023-01-29T02:48:49;98136.97;;;2.78;64.81
41703;BME280;861;48.808;9.006;2023-01-29T02:51:57;98136.63;;;2.49;66.40
41703;BME280;861;48.808;9.006;2023-01-29T02:57:42;98131.56;;;2.69;65.90
41703;BME280;861;48.808;9.006;2023-01-29T03:00:29;98133.56;;;2.64;66.08
41703;BME280;861;48.808;9.006;2023-01-29T03:03:31;98127.88;;;2.65;66.07
41703;BME280;861;48.808;9.006;2023-01-29T03:06:45;98143.88;;;2.70;66.08
41703;BME280;861;48.808;9.006;2023-01-29T03:09:43;98139.16;;;2.76;66.22
41703;BME280;861;48.808;9.006;2023-01-29T03:12:26;98134.22;;;3.00;64.00
41703;BME280;861;48.808;9.006;2023-01-29T03:15:33;98144.66;;;2.93;63.88
41703;BME280;861;48.808;9.006;2023-01-29T03:18:17;98136.22;;;2.86;65.06
41703;BME280;861;48.808;9.006;2023-01-29T03:20:56;98137.09;;;2.73;64.91
41703;BME280;861;48.808;9.006;2023-01-29T03:23:52;98132.44;;;2.65;66.62
41703;BME280;861;48.808;9.006;2023-01-29T03:26:42;98139.03;;;2.81;65.54
41703;BME280;861;48.808;9.006;2023-01-29T03:29:34;98137.28;;;2.76;64.88
41703;BME280;861;48.808;9.006;2023-01-29T03:32:27;98134.75;;;2.80;64.52
41703;BME280;861;48.808;9.006;2023-01-29T03:35:04;98135.06;;;2.78;64.99
41703;BME280;861;48.808;9.006;2023-01-29T03:37:45;98132.06;;;2.80;65.28
41703;BME280;861;48.808;9.006;2023-01-29T03:40:15;98137.94;;;2.82;65.89
41703;BME280;861;48.808;9.006;2023-01-29T03:47:29;98124.16;;;2.53;66.84
41703;BME280;861;48.808;9.006;2023-01-29T03:53:42;98126.66;;;3.02;65.00
41703;BME280;861;48.808;9.006;2023-01-29T03:59:36;98125.19;;;2.65;65.64
41703;BME280;861;48.808;9.006;2023-01-29T04:02:22;98130.22;;;2.58;65.63
41703;BME280;861;48.808;9.006;2023-01-29T04:05:10;98135.53;;;2.50;66.33
41703;BME280;861;48.808;9.006;2023-01-29T04:07:46;98130.34;;;2.53;67.02
41703;BME280;861;48.808;9.006;2023-01-29T04:10:26;98123.56;;;2.34;67.05
41703;BME280;861;48.808;9.006;2023-01-29T04:13:10;98133.22;;;2.35;67.91
41703;BME280;861;48.808;9.006;2023-01-29T04:15:57;98135.44;;;2.41;67.38
41703;BME280;861;48.808;9.006;2023-01-29T04:18:25;98125.63;;;2.37;67.72
41703;BME280;861;48.808;9.006;2023-01-29T04:20:52;98129.34;;;2.49;67.39
41703;BME280;861;48.808;9.006;2023-01-29T04:23:26;98132.66;;;2.46;67.55
41703;BME280;861;48.808;9.006;2023-01-29T04:29:29;98134.09;;;2.74;66.97
41703;BME280;861;48.808;9.006;2023-01-29T04:39:17;98133.66;;;2.81;66.93
41703;BME280;861;48.808;9.006;2023-01-29T04:42:13;98129.09;;;2.90;65.67
41703;BME280;861;48.808;9.006;2023-01-29T04:46:08;98129.91;;;2.60;66.75
41703;BME280;861;48.808;9.006;2023-01-29T04:52:24;98140.09;;;2.71;66.50
41703;BME280;861;48.808;9.006;2023-01-29T04:55:58;98133.00;;;2.75;66.70
41703;BME280;861;48.808;9.006;2023-01-29T04:58:46;98133.91;;;2.93;66.24
41703;BME280;861;48.808;9.006;2023-01-29T05:01:28;98126.97;;;3.09;65.47
41703;BME280;861;48.808;9.006;2023-01-29T05:04:07;98132.41;;;2.87;65.88
41703;BME280;861;48.808;9.006;2023-01-29T05:06:40;98130.31;;;2.75;65.70
41703;BME280;861;48.808;9.006;2023-01-29T05:09:11;98133.53;;;2.86;65.26
41703;BME280;861;48.808;9.006;2023-01-29T05:11:41;98123.13;;;2.93;64.82
41703;BME280;861;48.808;9.006;2023-01-29T05:14:18;98127.31;;;2.77;66.51
41703;BME280;861;48.808;9.006;2023-01-29T05:16:54;98132.59;;;2.60;66.30
41703;BME280;861;48.808;9.006;2023-01-29T05:19:25;98125.72;;;2.54;67.19
41703;BME280;861;48.808;9.006;2023-01-29T05:21:53;98140.16;;;2.80;65.78
41703;BME280;861;48.808;9.006;2023-01-29T05:24:25;98129.31;;;2.71;66.46
41703;BME280;861;48.808;9.006;2023-01-29T05:26:54;98133.44;;;2.69;66.03
41703;BME280;861;48.808;9.006;2023-01-29T05:29:46;98141.75;;;2.59;66.99
41703;BME280;861;48.808;9.006;2023-01-29T05:32:14;98141.75;;;2.59;67.75
41703;BME280;861;48.808;9.006;2023-01-29T05:34:41;98138.94;;;2.64;67.54
41703;BME280;861;48.808;9.006;2023-01-29T05:37:09;98136.13;;;2.69;67.74
41703;BME280;861;48.808;9.006;2023-01-29T05:39:35;98139.47;;;2.30;68.60
41703;BME280;861;48.808;9.006;2023-01-29T05:42:02;98134.56;;;2.46;68.24
41703;BME280;861;48.808;9.006;2023-01-29T05:44:28;98129.91;;;2.60;66.97
41703;BME280;861;48.808;9.006;2023-01-29T05:46:54;98126.63;;;2.71;66.81
41703;BME280;861;48.808;9.006;2023-01-29T05:49:20;98115.09;;;2.71;66.73
41703;BME280;861;48.808;9.006;2023-01-29T05:51:47;98101.31;;;2.42;67.59
41703;BME280;861;48.808;9.006;2023-01-29T05:54:13;98086.31;;;2.19;68.02
41703;BME280;861;48.808;9.006;2023-01-29T05:56:39;98083.34;;;1.85;68.81
41703;BME280;861;48.808;9.006;2023-01-29T05:59:06;98092.72;;;2.09;67.95
41703;BME280;861;48.808;9.006;2023-01-29T06:01:32;98091.06;;;2.44;67.62
41703;BME280;861;48.808;9.006;2023-01-29T06:03:58;98110.47;;;2.63;66.62
41703;BME280;861;48.808;9.006;2023-01-29T06:06:24;98117.09;;;2.57;66.57
41703;BME280;861;48.808;9.006;2023-01-29T06:08:50;98116.50;;;2.68;66.39
41703;BME280;861;48.808;9.006;2023-01-29T06:11:17;98111.72;;;2.57;66.36
41703;BME280;861;48.808;9.006;2023-01-29T06:13:47;98113.22;;;2.27;67.30
41703;BME280;861;48.808;9.006;2023-01-29T06:16:14;98120.06;;;2.55;66.64
41703;BME280;861;48.808;9.006;2023-01-29T06:18:42;98115.41;;;2.69;66.27
41703;BME280;861;48.808;9.006;2023-01-29T06:21:12;98110.59;;;2.58;65.85
41703;BME280;861;48.808;9.006;2023-01-29T06:23:40;98116.22;;;2.26;66.95
41703;BME280;861;48.808;9.006;2023-01-29T06:26:11;98122.09;;;2.28;67.46
41703;BME280;861;48.808;9.006;2023-01-29T06:28:38;98124.16;;;2.53;66.88
41703;BME280;861;48.808;9.006;2023-01-29T06:31:07;98122.25;;;2.75;65.93
41703;BME280;861;48.808;9.006;2023-01-29T06:33:33;98122.91;;;2.81;64.81
41703;BME280;861;48.808;9.006;2023-01-29T06:36:04;98131.25;;;2.71;65.04
41703;BME280;861;48.808;9.006;2023-01-29T06:38:31;98128.13;;;2.55;66.49
41703;BME280;861;48.808;9.006;2023-01-29T06:40:58;98124.66;;;2.55;65.94
41703;BME280;861;48.808;9.006;2023-01-29T06:43:25;98116.88;;;2.75;66.01
41703;BME280;861;48.808;9.006;2023-01-29T06:45:56;98120.59;;;2.66;65.73
41703;BME280;861;48.808;9.006;2023-01-29T06:48:23;98123.59;;;2.64;66.66
41703;BME280;861;48.808;9.006;2023-01-29T06:50:51;98120.44;;;2.62;66.28
41703;BME280;861;48.808;9.006;2023-01-29T06:53:20;98125.44;;;2.55;66.96
41703;BME280;861;48.808;9.006;2023-01-29T06:55:53;98124.28;;;2.48;66.51
41703;BME280;861;48.808;9.006;2023-01-29T06:58:21;98134.38;;;2.42;66.92
41703;BME280;861;48.808;9.006;2023-01-29T07:00:47;98137.28;;;2.54;67.46
41703;BME280;861;48.808;9.006;2023-01-29T07:03:13;98147.06;;;2.72;66.71
41703;BME280;861;48.808;9.006;2023-01-29T07:05:40;98130.22;;;2.89;64.61
41703;BME280;861;48.808;9.006;2023-01-29T07:08:06;98138.81;;;2.69;65.78
41703;BME280;861;48.808;9.006;2023-01-29T07:10:34;98128.69;;;2.66;65.73
41703;BME280;861;48.808;9.006;2023-01-29T07:13:00;98126.34;;;2.51;66.59
41703;BME280;861;48.808;9.006;2023-01-29T07:15:27;98128.19;;;2.64;66.44
41703;BME280;861;48.808;9.006;2023-01-29T07:18:01;98129.38;;;2.80;65.47
41703;BME280;861;48.808;9.006;2023-01-29T07:20:30;98131.84;;;2.68;66.06
41703;BME280;861;48.808;9.006;2023-01-29T07:22:57;98132.00;;;2.71;66.92
41703;BME280;861;48.808;9.006;2023-01-29T07:25:25;98135.63;;;2.67;65.94
41703;BME280;861;48.808;9.006;2023-01-29T07:27:51;98139.22;;;2.84;65.06
41703;BME280;861;48.808;9.006;2023-01-29T07:30:17;98136.13;;;2.69;65.78
41703;BME280;861;48.808;9.006;2023-01-29T07:32:43;98144.81;;;2.66;65.17
41703;BME280;861;48.808;9.006;2023-01-29T07:35:10;98150.50;;;2.64;65.73
41703;BME280;861;48.808;9.006;2023-01-29T07:37:36;98157.13;;;2.89;65.18
41703;BME280;861;48.808;9.006;2023-01-29T07:40:03;98149.41;;;2.96;65.44
41703;BME280;861;48.808;9.006;2023-01-29T07:42:39;98154.72;;;2.87;64.35
41703;BME280;861;48.808;9.006;2023-01-29T07:45:08;98157.50;;;2.74;65.49
41703;BME280;861;48.808;9.006;2023-01-29T07:47:36;98159.78;;;2.80;66.19
41703;BME280;861;48.808;9.006;2023-01-29T07:50:04;98163.50;;;2.71;66.89
41703;BME280;861;48.808;9.006;2023-01-29T07:52:33;98158.53;;;2.86;66.50
41703;BME280;861;48.808;9.006;2023-01-29T07:54:59;98161.53;;;2.85;66.39
41703;BME280;861;48.808;9.006;2023-01-29T07:57:25;98167.28;;;2.70;66.61
41703;BME280;861;48.808;9.006;2023-01-29T07:59:51;98170.34;;;2.77;66.12
41703;BME280;861;48.808;9.006;2023-01-29T08:02:17;98175.00;;;2.63;66.94
41703;BME280;861;48.808;9.006;2023-01-29T08:04:44;98173.97;;;2.72;67.05
41703;BME280;861;48.808;9.006;2023-01-29T08:07:10;98171.28;;;2.50;67.37
41703;BME280;861;48.808;9.006;2023-01-29T08:09:36;98170.88;;;2.65;66.95
41703;BME280;861;48.808;9.006;2023-01-29T08:12:02;98162.31;;;2.85;66.57
41703;BME280;861;48.808;9.006;2023-01-29T08:14:28;98172.16;;;2.68;67.11
41703;BME280;861;48.808;9.006;2023-01-29T08:16:54;98173.56;;;2.87;66.66
41703;BME280;861;48.808;9.006;2023-01-29T08:19:20;98178.25;;;3.04;66.39
41703;BME280;861;48.808;9.006;2023-01-29T08:21:47;98185.34;;;3.31;65.45
41703;BME280;861;48.808;9.006;2023-01-29T08:24:13;98186.66;;;3.11;65.74
41703;BME280;861;48.808;9.006;2023-01-29T08:26:39;98190.38;;;3.24;65.24
41703;BME280;861;48.808;9.006;2023-01-29T08:29:05;98193.38;;;3.22;65.70
41703;BME280;861;48.808;9.006;2023-01-29T08:31:31;98188.34;;;2.98;66.72
41703;BME280;861;48.808;9.006;2023-01-29T08:33:58;98182.72;;;3.08;66.37
41703;BME280;861;48.808;9.006;2023-01-29T08:36:24;98191.09;;;3.07;65.46
41703;BME280;861;48.808;9.006;2023-01-29T08:38:50;98192.09;;;2.89;66.89
41703;BME280;861;48.808;9.006;2023-01-29T08:41:16;98194.41;;;3.04;66.01
41703;BME280;861;48.808;9.006;2023-01-29T08:43:42;98199.97;;;2.85;65.70
41703;BME280;861;48.808;9.006;2023-01-29T08:46:09;98194.59;;;2.63;67.13
41703;BME280;861;48.808;9.006;2023-01-29T08:48:36;98194.59;;;2.85;67.16
41703;BME280;861;48.808;9.006;2023-01-29T08:51:03;98196.72;;;2.97;66.14
41703;BME280;861;48.808;9.006;2023-01-29T08:53:31;98186.66;;;2.80;66.52
41703;BME280;861;48.808;9.006;2023-01-29T08:55:57;98189.09;;;2.68;67.55
41703;BME280;861;48.808;9.006;2023-01-29T08:58:23;98191.16;;;2.71;67.53
41703;BME280;861;48.808;9.006;2023-01-29T09:00:50;98187.94;;;2.83;67.18
41703;BME280;861;48.808;9.006;2023-01-29T09:03:16;98191.88;;;2.85;66.67
41703;BME280;861;48.808;9.006;2023-01-29T09:05:42;98192.31;;;3.01;66.28
41703;BME280;861;48.808;9.006;2023-01-29T09:08:09;98200.22;;;2.97;66.43
41703;BME280;861;48.808;9.006;2023-01-29T09:10:35;98193.19;;;3.18;64.93
41703;BME280;861;48.808;9.006;2023-01-29T09:13:02;98192.16;;;2.97;66.28
41703;BME280;861;48.808;9.006;2023-01-29T09:15:29;98200.69;;;3.30;65.06
41703;BME280;861;48.808;9.006;2023-01-29T09:17:55;98207.91;;;3.43;63.40
41703;BME280;861;48.808;9.006;2023-01-29T09:20:22;98203.94;;;3.10;65.09
41703;BME280;861;48.808;9.006;2023-01-29T09:22:48;98204.63;;;3.24;65.06
41703;BME280;861;48.808;9.006;2023-01-29T09:25:16;98206.94;;;3.08;65.38
41703;BME280;861;48.808;9.006;2023-01-29T09:27:42;98207.94;;;3.21;66.19
41703;BME280;861;48.808;9.006;2023-01-29T09:30:10;98207.56;;;3.45;65.14
41703;BME280;861;48.808;9.006;2023-01-29T09:32:36;98214.84;;;3.36;63.71
41703;BME280;861;48.808;9.006;2023-01-29T09:35:02;98211.72;;;3.51;63.32
41703;BME280;861;48.808;9.006;2023-01-29T09:37:28;98209.56;;;3.31;64.08
41703;BME280;861;48.808;9.006;2023-01-29T09:39:54;98206.03;;;3.52;62.87
41703;BME280;861;48.808;9.006;2023-01-29T09:42:39;98208.91;;;3.64;62.63
41703;BME280;861;48.808;9.006;2023-01-29T09:45:25;98192.94;;;3.68;62.37
41703;BME280;861;48.808;9.006;2023-01-29T09:48:02;98175.16;;;3.58;62.85
41703;BME280;861;48.808;9.006;2023-01-29T09:50:39;98174.28;;;3.41;63.79
41703;BME280;861;48.808;9.006;2023-01-29T09:56:22;98166.31;;;3.58;62.73
41703;BME280;861;48.808;9.006;2023-01-29T09:58:58;98155.34;;;3.54;61.95
41703;BME280;861;48.808;9.006;2023-01-29T10:05:28;98138.69;;;2.74;64.38
41703;BME280;861;48.808;9.006;2023-01-29T10:12:24;98127.06;;;2.65;64.48
41703;BME280;861;48.808;9.006;2023-01-29T10:16:17;98137.56;;;2.09;66.41
41703;BME280;861;48.808;9.006;2023-01-29T10:25:58;98139.16;;;2.76;65.31
41703;BME280;861;48.808;9.006;2023-01-29T10:28:38;98145.28;;;2.68;64.82
41703;BME280;861;48.808;9.006;2023-01-29T10:31:28;98143.38;;;2.68;64.60
41703;BME280;861;48.808;9.006;2023-01-29T10:34:32;98145.56;;;2.88;64.81
41703;BME280;861;48.808;9.006;2023-01-29T10:37:25;98143.47;;;2.85;64.27
41703;BME280;861;48.808;9.006;2023-01-29T10:40:12;98150.91;;;2.36;65.41
41703;BME280;861;48.808;9.006;2023-01-29T10:56:31;98149.06;;;3.76;64.00
41703;BME280;861;48.808;9.006;2023-01-29T10:59:23;98143.38;;;3.94;62.08
41703;BME280;861;48.808;9.006;2023-01-29T11:02:18;98137.31;;;3.63;63.27
41703;BME280;861;48.808;9.006;2023-01-29T11:04:48;98144.69;;;3.97;62.82
41703;BME280;861;48.808;9.006;2023-01-29T11:07:20;98145.94;;;3.35;62.60
41703;BME280;861;48.808;9.006;2023-01-29T11:10:16;98143.97;;;3.57;62.42
41703;BME280;861;48.808;9.006;2023-01-29T11:12:48;98155.34;;;3.54;62.80
41703;BME280;861;48.808;9.006;2023-01-29T11:15:31;98150.28;;;3.61;61.24
41703;BME280;861;48.808;9.006;2023-01-29T11:18:13;98133.78;;;3.46;62.15
41703;BME280;861;48.808;9.006;2023-01-29T11:20:44;98135.56;;;3.67;60.82
41703;BME280;861;48.808;9.006;2023-01-29T11:23:32;98131.34;;;3.92;61.83
41703;BME280;861;48.808;9.006;2023-01-29T11:26:00;98121.53;;;4.04;61.75
41703;BME280;861;48.808;9.006;2023-01-29T11:28:44;98114.19;;;3.71;61.25
41703;BME280;861;48.808;9.006;2023-01-29T11:31:28;98101.22;;;3.90;62.05
41703;BME280;861;48.808;9.006;2023-01-29T11:34:24;98103.94;;;3.81;61.32
41703;BME280;861;48.808;9.006;2023-01-29T11:37:03;98099.91;;;3.53;63.34
41703;BME280;861;48.808;9.006;2023-01-29T11:39:44;98085.50;;;3.49;62.55
41703;BME280;861;48.808;9.006;2023-01-29T11:42:21;98087.75;;;3.73;61.55
41703;BME280;861;48.808;9.006;2023-01-29T11:44:48;98104.41;;;3.75;62.48
41703;BME280;861;48.808;9.006;2023-01-29T11:47:28;98096.81;;;4.02;61.95
41703;BME280;861;48.808;9.006;2023-01-29T11:50:03;98097.13;;;4.26;61.62
41703;BME280;861;48.808;9.006;2023-01-29T11:52:42;98097.88;;;4.52;59.23
41703;BME280;861;48.808;9.006;2023-01-29T11:55:21;98107.28;;;4.38;60.13
41703;BME280;861;48.808;9.006;2023-01-29T11:58:26;98092.66;;;3.88;61.29
41703;BME280;861;48.808;9.006;2023-01-29T12:00:58;98084.56;;;3.71;62.64
41703;BME280;861;48.808;9.006;2023-01-29T12:03:42;98072.25;;;3.95;61.70
41703;BME280;861;48.808;9.006;2023-01-29T12:06:36;98065.25;;;4.20;61.64
41703;BME280;861;48.808;9.006;2023-01-29T12:09:18;98060.81;;;4.07;61.70
41703;BME280;861;48.808;9.006;2023-01-29T12:11:49;98058.44;;;4.14;61.69
41703;BME280;861;48.808;9.006;2023-01-29T12:14:32;98050.50;;;4.34;60.00
41703;BME280;861;48.808;9.006;2023-01-29T12:17:20;98036.84;;;4.22;61.99
41703;BME280;861;48.808;9.006;2023-01-29T12:20:03;98040.84;;;4.08;62.05
41703;BME280;861;48.808;9.006;2023-01-29T12:23:07;98030.97;;;4.29;60.62
41703;BME280;861;48.808;9.006;2023-01-29T12:26:10;98018.50;;;3.99;61.74
41703;BME280;861;48.808;9.006;2023-01-29T12:32:36;98007.41;;;4.09;63.34
41703;BME280;861;48.808;9.006;2023-01-29T12:38:23;97993.56;;;4.27;60.30
41703;BME280;861;48.808;9.006;2023-01-29T12:41:10;97988.97;;;4.28;60.30
41703;BME280;861;48.808;9.006;2023-01-29T12:44:12;97986.22;;;4.53;60.72
41703;BME280;861;48.808;9.006;2023-01-29T12:47:01;97979.72;;;4.46;61.85
41703;BME280;861;48.808;9.006;2023-01-29T12:49:38;97970.44;;;4.72;60.28
41703;BME280;861;48.808;9.006;2023-01-29T12:52:13;97972.97;;;4.69;60.74
41703;BME280;861;48.808;9.006;2023-01-29T12:55:06;97973.69;;;4.49;60.49
41703;BME280;861;48.808;9.006;2023-01-29T12:57:56;97972.63;;;4.33;61.39
41703;BME280;861;48.808;9.006;2023-01-29T13:00:42;97963.97;;;4.94;60.99
41703;BME280;861;48.808;9.006;2023-01-29T13:03:26;97968.38;;;4.15;62.22
41703;BME280;861;48.808;9.006;2023-01-29T13:06:13;97958.47;;;4.44;60.61
41703;BME280;861;48.808;9.006;2023-01-29T13:09:01;97953.44;;;4.34;60.94
41703;BME280;861;48.808;9.006;2023-01-29T13:11:49;97944.41;;;4.68;60.73
41703;BME280;861;48.808;9.006;2023-01-29T13:14:48;97941.75;;;5.18;58.92
41703;BME280;861;48.808;9.006;2023-01-29T13:17:36;97944.09;;;4.99;59.03
41703;BME280;861;48.808;9.006;2023-01-29T13:20:29;97932.09;;;5.17;58.91
41703;BME280;861;48.808;9.006;2023-01-29T13:23:24;97932.09;;;4.88;60.25
41703;BME280;861;48.808;9.006;2023-01-29T13:25:57;97932.72;;;5.34;58.28
41703;BME280;861;48.808;9.006;2023-01-29T13:28:26;97930.50;;;5.36;60.16
41703;BME280;861;48.808;9.006;2023-01-29T13:36:54;97948.47;;;5.53;57.31
41703;BME280;861;48.808;9.006;2023-01-29T13:39:33;97942.63;;;5.51;58.83
41703;BME280;861;48.808;9.006;2023-01-29T13:42:44;97956.97;;;5.63;56.82
41703;BME280;861;48.808;9.006;2023-01-29T13:45:40;97949.53;;;5.60;57.03
41703;BME280;861;48.808;9.006;2023-01-29T13:48:27;97947.06;;;5.88;56.54
41703;BME280;861;48.808;9.006;2023-01-29T13:51:13;97949.50;;;5.81;56.30
41703;BME280;861;48.808;9.006;2023-01-29T13:54:00;97946.25;;;6.08;57.95
41703;BME280;861;48.808;9.006;2023-01-29T13:59:02;97955.88;;;6.30;56.62
41703;BME280;861;48.808;9.006;2023-01-29T14:04:27;97955.00;;;5.52;57.63
41703;BME280;861;48.808;9.006;2023-01-29T14:07:00;97955.91;;;5.35;57.93
41703;BME280;861;48.808;9.006;2023-01-29T14:12:37;97949.00;;;5.26;58.02
41703;BME280;861;48.808;9.006;2023-01-29T14:15:30;97937.88;;;5.48;59.05
41703;BME280;861;48.808;9.006;2023-01-29T14:18:21;97934.38;;;5.47;58.49
41703;BME280;861;48.808;9.006;2023-01-29T14:21:05;97936.03;;;5.40;59.17
41703;BME280;861;48.808;9.006;2023-01-29T14:23:50;97933.66;;;5.38;59.44
41703;BME280;861;48.808;9.006;2023-01-29T14:26:40;97931.00;;;5.50;59.18
41703;BME280;861;48.808;9.006;2023-01-29T14:29:22;97938.13;;;5.55;59.87
41703;BME280;861;48.808;9.006;2023-01-29T14:32:19;97931.66;;;5.68;57.59
41703;BME280;861;48.808;9.006;2023-01-29T14:34:59;97944.25;;;5.64;57.94
41703;BME280;861;48.808;9.006;2023-01-29T14:37:40;97936.56;;;4.84;60.32
41703;BME280;861;48.808;9.006;2023-01-29T14:40:20;97931.19;;;4.84;60.81
41703;BME280;861;48.808;9.006;2023-01-29T14:43:08;97927.00;;;5.15;60.32
41703;BME280;861;48.808;9.006;2023-01-29T14:45:47;97929.50;;;5.41;60.31
41703;BME280;861;48.808;9.006;2023-01-29T14:48:46;97928.84;;;5.44;60.21
41703;BME280;861;48.808;9.006;2023-01-29T14:51:21;97933.84;;;5.74;58.61
41703;BME280;861;48.808;9.006;2023-01-29T14:54:14;97924.41;;;5.60;58.96
41703;BME280;861;48.808;9.006;2023-01-29T14:57:03;97922.13;;;5.50;59.91
41703;BME280;861;48.808;9.006;2023-01-29T14:59:55;97923.50;;;5.76;58.93
41703;BME280;861;48.808;9.006;2023-01-29T15:02:38;97916.13;;;5.97;58.21
41703;BME280;861;48.808;9.006;2023-01-29T15:05:19;97915.44;;;5.88;58.30
41703;BME280;861;48.808;9.006;2023-01-29T15:07:58;97917.63;;;5.74;59.55
41703;BME280;861;48.808;9.006;2023-01-29T15:10:41;97926.34;;;5.18;59.79
41703;BME280;861;48.808;9.006;2023-01-29T15:13:43;97947.41;;;5.04;60.99
41703;BME280;861;48.808;9.006;2023-01-29T15:19:58;97940.78;;;5.84;60.65
41703;BME280;861;48.808;9.006;2023-01-29T15:22:24;97941.47;;;5.93;59.09
41703;BME280;861;48.808;9.006;2023-01-29T15:25:13;97939.91;;;5.71;59.63
41703;BME280;861;48.808;9.006;2023-01-29T15:27:44;97941.47;;;5.52;60.55
41703;BME280;861;48.808;9.006;2023-01-29T15:30:21;97938.06;;;5.84;59.31
41703;BME280;861;48.808;9.006;2023-01-29T15:32:51;97931.91;;;5.95;59.13
41703;BME280;861;48.808;9.006;2023-01-29T15:35:39;97917.56;;;6.15;56.93
41703;BME280;861;48.808;9.006;2023-01-29T15:38:23;97918.13;;;6.21;57.33
41703;BME280;861;48.808;9.006;2023-01-29T15:41:01;97918.63;;;5.90;59.07
41703;BME280;861;48.808;9.006;2023-01-29T15:43:46;97921.53;;;5.97;57.75
41703;BME280;861;48.808;9.006;2023-01-29T15:46:30;97922.22;;;5.74;59.43
41703;BME280;861;48.808;9.006;2023-01-29T15:49:28;97919.28;;;5.67;58.96
41703;BME280;861;48.808;9.006;2023-01-29T15:52:16;97925.03;;;5.65;58.17
41703;BME280;861;48.808;9.006;2023-01-29T15:54:47;97927.25;;;5.43;59.36
41703;BME280;861;48.808;9.006;2023-01-29T15:57:35;97925.03;;;5.45;59.93
41703;BME280;861;48.808;9.006;2023-01-29T16:00:19;97927.72;;;5.45;59.62
41703;BME280;861;48.808;9.006;2023-01-29T16:02:50;97923.25;;;5.49;58.83
41703;BME280;861;48.808;9.006;2023-01-29T16:05:28;97927.41;;;5.46;58.89